Time;durP1;ratioP1;P1;durP2;ratioP2;P2;SDS_P1;SDS_P2;PMS_P1;PMS_P2;Temp;Humidity;BMP_temperature;BMP_pressure;BME280_temperature;BME280_humidity;BME280_pressure;Samples;Min_cycle;Max_cycle;Signal;HPM_P1;HPM_P2
2022/03/14 00:01:20;;;;;;;57.47;23.67;;;;;;;2.82;35.20;101198.44;5037087;28;20043;-74
2022/03/14 00:03:50;;;;;;;50.47;24.33;;;;;;;2.77;35.33;101201.66;5055192;28;20036;-74
2022/03/14 00:06:17;;;;;;;50.92;22.83;;;;;;;2.68;35.12;101201.25;5022017;28;20086;-73
2022/03/14 00:08:45;;;;;;;53.22;24.73;;;;;;;2.57;35.59;101204.88;5020511;28;20041;-74
2022/03/14 00:11:16;;;;;;;44.30;23.92;;;;;;;2.51;35.64;101214.94;5054875;28;20025;-73
2022/03/14 00:13:46;;;;;;;;;;;;;;;2.44;35.74;101205.69;5055232;28;20101;-73
2022/03/14 00:16:26;;;;;;;42.78;21.30;;;;;;;2.35;35.87;101200.47;5036849;28;19908;-73
2022/03/14 00:18:53;;;;;;;51.78;23.05;;;;;;;2.31;35.89;101212.94;5006662;28;20385;-74
2022/03/14 00:21:31;;;;;;;47.78;23.27;;;;;;;2.26;36.46;101216.94;5020597;28;20489;-73
2022/03/14 00:23:58;;;;;;;48.35;22.92;;;;;;;2.14;36.10;101203.25;5037232;28;20430;-73
2022/03/14 00:26:25;;;;;;;46.47;22.50;;;;;;;2.15;36.10;101216.91;5020423;28;20029;-73
2022/03/14 00:28:51;;;;;;;50.35;23.63;;;;;;;2.07;36.26;101220.13;5020419;28;20500;-73
2022/03/14 00:31:17;;;;;;;54.08;24.23;;;;;;;2.03;36.56;101219.28;5020101;28;20060;-73
2022/03/14 00:33:42;;;;;;;62.25;27.20;;;;;;;1.96;36.81;101220.09;5019984;28;20039;-74
2022/03/14 00:36:09;;;;;;;54.05;26.13;;;;;;;1.94;36.61;101224.50;5036624;28;20457;-74
2022/03/14 00:38:36;;;;;;;52.13;23.92;;;;;;;1.89;37.17;101214.44;5036506;28;20083;-74
2022/03/14 00:41:03;;;;;;;57.40;26.58;;;;;;;1.84;36.89;101228.88;5003834;28;20029;-74
2022/03/14 00:43:34;;;;;;;51.08;24.33;;;;;;;1.77;37.21;101220.44;5054271;28;20032;-74
2022/03/14 00:46:03;;;;;;;55.72;24.40;;;;;;;1.74;37.53;101236.06;5036724;28;20029;-73
2022/03/14 00:48:34;;;;;;;54.65;26.20;;;;;;;1.67;37.86;101229.66;5003475;28;20033;-76
2022/03/14 00:51:02;;;;;;;59.35;26.75;;;;;;;1.64;37.88;101236.03;5036876;28;20055;-74
2022/03/14 00:53:27;;;;;;;60.75;25.52;;;;;;;1.56;38.23;101234.41;5016250;28;20135;-74
2022/03/14 00:55:53;;;;;;;59.67;28.50;;;;;;;1.52;38.24;101230.78;5032829;28;20486;-72
2022/03/14 00:58:19;;;;;;;60.95;29.40;;;;;;;1.37;37.89;101212.28;5032664;28;20029;-73
2022/03/14 01:00:48;;;;;;;64.88;30.40;;;;;;;1.51;38.77;101243.22;5032658;28;20036;-74
2022/03/14 01:03:14;;;;;;;62.22;32.75;;;;;;;1.47;38.75;101245.19;5032837;28;20021;-73
2022/03/14 01:05:40;;;;;;;67.10;30.20;;;;;;;1.44;39.15;101237.53;5032540;28;20041;-74
2022/03/14 01:08:06;;;;;;;67.18;29.83;;;;;;;1.38;39.01;101239.94;5016245;28;20394;-73
2022/03/14 01:10:33;;;;;;;75.70;32.63;;;;;;;1.30;39.32;101235.47;5033769;28;20056;-73
2022/03/14 01:13:03;;;;;;;64.07;31.00;;;;;;;1.35;39.25;101239.91;5031224;28;20033;-73
2022/03/14 01:15:29;;;;;;;69.85;30.13;;;;;;;1.29;39.86;101239.47;5032465;28;20053;-72
2022/03/14 01:17:56;;;;;;;66.70;29.92;;;;;;;1.27;40.25;101244.69;4998389;28;20037;-74
2022/03/14 01:20:25;;;;;;;71.15;29.70;;;;;;;1.23;40.25;101241.06;5031251;28;20143;-74
2022/03/14 01:22:54;;;;;;;58.72;28.85;;;;;;;1.19;40.43;101240.22;5032421;28;20509;-73
2022/03/14 01:25:36;;;;;;;67.78;28.92;;;;;;;1.10;41.17;101239.78;5031411;28;20095;-74
2022/03/14 01:28:02;;;;;;;65.03;29.55;;;;;;;1.05;41.12;101243.75;5032549;28;20492;-74
2022/03/14 01:30:28;;;;;;;62.03;31.05;;;;;;;0.99;40.78;101233.31;5033361;28;20505;-74
2022/03/14 01:32:54;;;;;;;68.43;30.83;;;;;;;0.99;40.54;101242.50;5032240;28;20057;-74
2022/03/14 01:35:22;;;;;;;69.05;30.88;;;;;;;0.96;41.19;101236.88;5015723;28;20065;-74
2022/03/14 01:37:49;;;;;;;67.40;30.75;;;;;;;0.99;40.80;101238.94;5032204;28;20537;-74
2022/03/14 01:40:16;;;;;;;73.60;32.30;;;;;;;1.01;40.98;101240.13;5031815;28;20105;-75
2022/03/14 01:42:43;;;;;;;75.75;33.92;;;;;;;0.94;40.92;101245.69;5015634;28;20041;-74
2022/03/14 01:45:09;;;;;;;70.72;32.33;;;;;;;0.92;41.19;101245.28;5031895;28;20065;-72
2022/03/14 01:47:49;;;;;;;68.40;31.58;;;;;;;0.92;42.04;101252.88;5032316;28;20030;-74
2022/03/14 01:50:16;;;;;;;65.95;31.20;;;;;;;0.89;41.63;101257.25;5031913;28;20025;-74
2022/03/14 01:52:50;;;;;;;60.60;29.60;;;;;;;0.93;40.98;101249.69;5015391;28;20055;-74
2022/03/14 01:55:16;;;;;;;64.10;30.17;;;;;;;0.98;41.50;101251.34;5031820;28;20034;-74
2022/03/14 01:57:42;;;;;;;63.42;30.20;;;;;;;1.00;41.02;101248.94;5033308;28;20028;-74
2022/03/14 02:00:11;;;;;;;61.95;28.80;;;;;;;0.99;41.70;101245.31;5015329;28;20382;-74
2022/03/14 02:02:36;;;;;;;71.32;30.52;;;;;;;0.86;41.46;101230.81;5033246;28;20083;-74
2022/03/14 02:05:03;;;;;;;73.05;32.10;;;;;;;0.99;41.81;101255.75;5030702;28;20033;-75
2022/03/14 02:07:31;;;;;;;69.97;29.60;;;;;;;1.01;41.93;101244.94;5031842;28;20036;-74
2022/03/14 02:09:58;;;;;;;69.15;31.73;;;;;;;0.98;42.01;101249.34;5015248;28;20025;-74
2022/03/14 02:12:25;;;;;;;70.80;30.63;;;;;;;0.91;41.61;101242.84;5031607;28;20038;-74
2022/03/14 02:14:52;;;;;;;65.38;28.63;;;;;;;0.84;41.53;101238.81;5015038;28;20049;-73
2022/03/14 02:17:21;;;;;;;64.00;28.63;;;;;;;0.90;41.91;101244.84;5031891;28;20052;-73
2022/03/14 02:19:50;;;;;;;66.95;29.90;;;;;;;0.85;42.22;101251.63;5031735;28;20026;-74
2022/03/14 02:22:16;;;;;;;64.13;29.50;;;;;;;0.86;42.38;101249.63;5032878;28;20026;-74
2022/03/14 02:24:44;;;;;;;70.72;31.90;;;;;;;0.83;42.39;101248.44;5031400;28;20033;-74
2022/03/14 02:27:25;;;;;;;76.75;32.97;;;;;;;0.78;42.97;101253.59;5031439;28;20132;-73
2022/03/14 02:29:51;;;;;;;78.63;33.13;;;;;;;0.75;42.49;101257.97;5033066;28;20026;-74
2022/03/14 02:32:18;;;;;;;82.10;34.35;;;;;;;0.72;42.17;101250.34;5032993;28;20022;-74
2022/03/14 02:34:44;;;;;;;81.25;33.33;;;;;;;0.66;42.43;101249.09;5015092;28;20441;-74
2022/03/14 02:37:11;;;;;;;75.80;30.90;;;;;;;0.61;42.81;101243.03;5031157;28;20037;-75
2022/03/14 02:39:40;;;;;;;69.40;31.95;;;;;;;0.67;42.83;101249.91;5025898;28;20064;-72
2022/03/14 02:42:06;;;;;;;67.25;32.50;;;;;;;0.66;42.94;101260.31;5031453;28;20147;-74
2022/03/14 02:44:34;;;;;;;70.32;31.77;;;;;;;0.73;43.00;101253.97;5031501;28;20022;-75
2022/03/14 02:47:04;;;;;;;69.35;31.20;;;;;;;0.48;43.59;101225.72;4998957;28;20137;-74
2022/03/14 02:49:30;;;;;;;71.60;30.15;;;;;;;0.60;43.03;101263.84;5016001;28;20033;-74
2022/03/14 02:51:58;;;;;;;68.13;30.05;;;;;;;0.38;43.03;101237.66;5014876;28;20444;-74
2022/03/14 02:54:25;;;;;;;67.72;30.33;;;;;;;0.47;43.75;101251.31;5046060;28;20059;-74
2022/03/14 02:56:50;;;;;;;66.15;29.80;;;;;;;0.45;43.13;101265.72;5034275;28;20385;-73
2022/03/14 02:59:17;;;;;;;66.57;28.63;;;;;;;0.40;43.81;101254.88;5051465;28;20486;-73
2022/03/14 03:01:43;;;;;;;64.55;28.40;;;;;;;0.48;43.44;101264.16;5034844;28;20021;-73
2022/03/14 03:04:10;;;;;;;65.32;31.00;;;;;;;0.48;44.36;101269.75;5052446;28;20082;-75
2022/03/14 03:06:41;;;;;;;67.10;29.50;;;;;;;0.46;44.37;101260.91;5018304;28;20078;-74
2022/03/14 03:09:07;;;;;;;63.03;29.88;;;;;;;0.43;44.21;101257.72;5035164;28;20029;-73
2022/03/14 03:11:33;;;;;;;77.68;32.20;;;;;;;0.46;44.52;101258.13;5052516;28;20028;-73
2022/03/14 03:14:01;;;;;;;68.78;30.63;;;;;;;0.44;44.02;101264.13;5034621;28;20044;-72
2022/03/14 03:16:29;;;;;;;70.25;31.02;;;;;;;0.37;44.31;101258.44;5001733;28;20139;-72
2022/03/14 03:18:55;;;;;;;84.53;34.40;;;;;;;0.32;44.52;101258.81;5034533;28;20025;-73
2022/03/14 03:21:22;;;;;;;77.18;33.45;;;;;;;0.27;44.84;101268.38;5018096;28;20036;-72
2022/03/14 03:23:47;;;;;;;90.20;36.67;;;;;;;0.25;45.33;101272.72;5055284;28;20469;-73
2022/03/14 03:26:15;;;;;;;80.50;35.50;;;;;;;0.20;45.20;101279.47;5038010;28;20045;-73
2022/03/14 03:28:41;;;;;;;74.07;32.22;;;;;;;0.17;45.19;101280.25;5037723;28;20036;-73
2022/03/14 03:31:20;;;;;;;75.97;32.83;;;;;;;0.12;46.09;101286.22;5021401;28;20495;-74
2022/03/14 03:33:54;;;;;;;73.90;32.75;;;;;;;0.09;45.56;101286.19;5055508;28;20052;-74
2022/03/14 03:36:28;;;;;;;71.88;31.45;;;;;;;0.07;46.33;101282.94;5021060;28;20028;-73
2022/03/14 03:38:58;;;;;;;72.60;31.83;;;;;;;0.07;45.97;101283.75;5037714;28;20044;-73
2022/03/14 03:41:32;;;;;;;63.00;30.42;;;;;;;0.04;46.59;101292.13;5037532;28;20098;-73
2022/03/14 03:43:59;;;;;;;69.95;30.85;;;;;;;0.03;46.44;101301.72;5055305;28;20385;-74
2022/03/14 03:46:27;;;;;;;72.22;33.30;;;;;;;-0.03;46.68;101295.63;5037431;28;20021;-74
2022/03/14 03:48:52;;;;;;;77.95;33.90;;;;;;;-0.01;46.61;101299.69;5055326;28;20133;-73
2022/03/14 03:51:18;;;;;;;78.95;33.95;;;;;;;-0.05;46.85;101296.00;5004542;28;20565;-75
2022/03/14 03:53:45;;;;;;;73.13;32.03;;;;;;;-0.05;46.93;101293.22;5055164;28;20041;-74
2022/03/14 03:56:10;;;;;;;75.63;33.03;;;;;;;-0.09;46.90;101292.38;5020845;28;20021;-74
2022/03/14 03:58:37;;;;;;;77.72;34.33;;;;;;;-0.07;46.80;101290.00;5037219;28;20174;-75
2022/03/14 04:01:03;;;;;;;78.10;33.47;;;;;;;-0.03;46.54;101288.06;5037733;28;20034;-74
2022/03/14 04:03:29;;;;;;;85.25;36.35;;;;;;;-0.07;46.81;101278.00;5004855;28;20097;-74
2022/03/14 04:05:57;;;;;;;86.85;37.40;;;;;;;-0.13;46.66;101287.91;5037341;28;20099;-74
2022/03/14 04:08:29;;;;;;;83.50;38.25;;;;;;;-0.11;47.06;101303.16;5055120;28;20021;-74
2022/03/14 04:10:58;;;;;;;93.75;39.20;;;;;;;-0.16;47.05;101292.31;5055154;28;20029;-73
2022/03/14 04:13:29;;;;;;;85.93;36.38;;;;;;;-0.15;47.07;101298.72;5037057;28;20071;-74
2022/03/14 04:15:56;;;;;;;88.72;36.78;;;;;;;-0.11;46.96;101299.56;5004575;28;20029;-73
2022/03/14 04:18:26;;;;;;;78.80;36.33;;;;;;;-0.08;46.86;101296.78;5004441;28;20056;-75
2022/03/14 04:20:53;;;;;;;79.60;36.88;;;;;;;-0.14;47.55;101291.91;5021171;28;20108;-76
2022/03/14 04:23:19;;;;;;;76.72;33.65;;;;;;;-0.13;47.32;101305.53;5004192;28;20024;-73
2022/03/14 04:25:46;;;;;;;79.68;34.40;;;;;;;-0.12;47.41;101303.53;5055034;28;20025;-75
2022/03/14 04:28:20;;;;;;;79.70;33.63;;;;;;;-0.15;47.58;101307.88;5020671;28;20047;-72
2022/03/14 04:30:48;;;;;;;79.10;32.47;;;;;;;-0.14;47.52;101303.09;5054845;28;20465;-72
2022/03/14 04:33:14;;;;;;;70.40;31.83;;;;;;;-0.18;47.57;101299.47;5036088;28;20048;-72
2022/03/14 04:35:45;;;;;;;68.05;30.23;;;;;;;-0.13;47.61;101304.72;5036808;28;20029;-74
2022/03/14 04:38:16;;;;;;;73.45;32.40;;;;;;;-0.05;47.57;101301.63;5020549;28;20385;-74
2022/03/14 04:40:43;;;;;;;78.07;33.38;;;;;;;-0.03;47.69;101302.06;5021965;28;20473;-75
2022/03/14 04:43:10;;;;;;;76.25;33.72;;;;;;;0.00;47.37;101308.91;5039932;28;20021;-75
2022/03/14 04:45:50;;;;;;;81.38;34.42;;;;;;;-0.02;47.77;101308.47;5021662;28;20029;-74
2022/03/14 04:48:17;;;;;;;79.97;33.53;;;;;;;-0.18;47.37;101285.47;5019893;28;20075;-73
2022/03/14 04:50:44;;;;;;;83.00;36.30;;;;;;;-0.03;47.32;101321.66;5036591;28;20017;-74
2022/03/14 04:53:11;;;;;;;86.25;36.38;;;;;;;-0.07;47.80;101334.00;5035406;28;20064;-74
2022/03/14 04:55:51;;;;;;;80.32;35.63;;;;;;;-0.12;48.42;101342.72;5054853;28;20487;-74
2022/03/14 04:58:17;;;;;;;79.95;34.83;;;;;;;-0.17;48.20;101341.06;5036434;28;20108;-74
2022/03/14 05:00:44;;;;;;;76.43;31.35;;;;;;;-0.26;47.56;101329.38;5036850;28;20075;-73
2022/03/14 05:03:10;;;;;;;68.22;31.17;;;;;;;-0.21;47.86;101333.81;5054144;28;20025;-73
2022/03/14 05:05:41;;;;;;;73.28;30.70;;;;;;;-0.19;47.86;101346.25;5036540;28;20032;-74
2022/03/14 05:08:07;;;;;;;82.25;35.03;;;;;;;-0.29;48.16;101335.72;5036412;28;20040;-74
2022/03/14 05:10:32;;;;;;;74.47;33.72;;;;;;;-0.34;48.37;101346.41;5036116;28;20025;-73
2022/03/14 05:13:01;;;;;;;87.03;32.95;;;;;;;-0.38;48.61;101343.59;5035680;28;20032;-73
2022/03/14 05:15:28;;;;;;;80.55;33.85;;;;;;;-0.33;48.35;101350.84;5035884;28;20025;-73
2022/03/14 05:17:54;;;;;;;76.53;33.17;;;;;;;-0.36;48.65;101355.22;5035936;28;20380;-73
2022/03/14 05:20:20;;;;;;;83.03;33.50;;;;;;;-0.39;49.06;101349.56;5034711;28;20035;-73
2022/03/14 05:22:48;;;;;;;70.60;32.08;;;;;;;-0.34;48.79;101358.44;5019299;28;20112;-74
2022/03/14 05:25:17;;;;;;;74.13;32.25;;;;;;;-0.30;49.10;101361.28;5003182;28;20032;-73
2022/03/14 05:27:44;;;;;;;84.88;34.47;;;;;;;-0.28;48.90;101364.50;5019369;28;20036;-74
2022/03/14 05:30:10;;;;;;;81.63;33.40;;;;;;;-0.24;49.25;101366.16;5053311;28;20056;-73
2022/03/14 05:32:41;;;;;;;76.07;31.77;;;;;;;-0.20;48.74;101374.63;5025044;28;20040;-73
2022/03/14 05:35:15;;;;;;;78.77;32.57;;;;;;;-0.17;49.12;101369.06;5019995;28;20165;-74
2022/03/14 05:37:42;;;;;;;66.85;31.63;;;;;;;-0.10;49.12;101369.16;5021200;28;20091;-73
2022/03/14 05:40:11;;;;;;;69.35;30.77;;;;;;;-0.03;48.26;101372.03;5019819;28;20035;-73
2022/03/14 05:42:36;;;;;;;72.05;32.58;;;;;;;0.03;48.36;101372.53;5056466;28;20025;-72
2022/03/14 05:45:03;;;;;;;70.35;31.77;;;;;;;0.10;47.84;101375.41;5006063;28;20079;-74
2022/03/14 05:47:29;;;;;;;69.88;29.83;;;;;;;0.14;47.76;101381.88;5007397;28;20041;-74
2022/03/14 05:49:56;;;;;;;71.88;30.70;;;;;;;0.15;48.36;101368.69;5058549;28;20025;-74
2022/03/14 05:52:22;;;;;;;77.57;32.63;;;;;;;0.21;48.04;101372.72;5041312;28;20146;-76
2022/03/14 05:54:49;;;;;;;70.57;31.65;;;;;;;0.28;48.60;101382.03;5020598;28;20059;-74
2022/03/14 05:57:15;;;;;;;68.95;30.20;;;;;;;0.28;48.35;101378.44;5032865;28;20091;-74
2022/03/14 05:59:42;;;;;;;93.82;36.22;;;;;;;0.36;48.63;101374.50;5053234;28;20028;-76
2022/03/14 06:02:10;;;;;;;64.85;28.45;;;;;;;0.43;48.18;101381.00;5017953;28;20478;-73
2022/03/14 06:04:39;;;;;;;71.82;31.15;;;;;;;0.57;48.51;101391.56;5035374;28;20453;-75
2022/03/14 06:07:06;;;;;;;65.07;28.63;;;;;;;0.63;48.35;101395.63;5053108;28;20037;-75
2022/03/14 06:09:32;;;;;;;75.82;30.15;;;;;;;0.76;48.12;101385.75;5035483;28;20035;-74
2022/03/14 06:12:03;;;;;;;75.22;31.50;;;;;;;1.53;46.97;101379.16;5019310;28;20028;-74
2022/03/14 06:14:30;;;;;;;76.82;31.13;;;;;;;2.30;45.15;101391.19;5034931;28;20025;-76
2022/03/14 06:16:57;;;;;;;68.45;27.27;;;;;;;2.71;44.04;101355.16;5019523;28;20071;-76
2022/03/14 06:19:25;;;;;;;70.97;30.27;;;;;;;2.86;43.29;101382.09;5037088;28;20087;-79
2022/03/14 06:21:51;;;;;;;67.57;28.48;;;;;;;2.70;43.33;101384.47;5035455;28;20470;-77
2022/03/14 06:24:17;;;;;;;62.28;28.45;;;;;;;2.67;43.62;101404.94;5036506;28;20025;-81
2022/03/14 06:26:43;;;;;;;64.35;28.90;;;;;;;2.68;43.94;101392.50;5035986;28;20025;-79
2022/03/14 06:29:09;;;;;;;71.60;29.55;;;;;;;3.68;43.12;101389.31;5053597;28;20063;-76
2022/03/14 06:31:35;;;;;;;74.32;27.25;;;;;;;5.58;39.93;101380.13;5052533;28;20414;-78
2022/03/14 06:34:01;;;;;;;56.92;25.92;;;;;;;8.07;35.79;101370.41;5034996;28;20040;-75
2022/03/14 06:36:27;;;;;;;51.83;23.17;;;;;;;9.56;31.68;101378.38;5002612;28;20032;-76
2022/03/14 06:39:07;;;;;;;55.53;25.60;;;;;;;10.92;30.57;101368.34;5035119;28;20139;-79
2022/03/14 06:41:38;;;;;;;55.78;24.48;;;;;;;13.68;26.97;101362.94;5034563;28;20024;-76
2022/03/14 06:44:05;;;;;;;50.83;24.70;;;;;;;16.87;23.25;101344.16;5019106;28;20013;-78
2022/03/14 06:46:35;;;;;;;48.22;22.00;;;;;;;18.96;19.25;101347.38;5052662;28;20052;-75
2022/03/14 06:49:00;;;;;;;50.90;23.40;;;;;;;20.08;18.53;101345.97;5034645;28;20021;-75
2022/03/14 06:51:34;;;;;;;45.50;23.70;;;;;;;18.21;18.76;101353.41;5041317;28;20448;-75
2022/03/14 06:54:01;;;;;;;40.33;23.27;;;;;;;18.41;19.40;101353.38;5027726;28;20152;-75
2022/03/14 06:56:27;;;;;;;43.10;22.55;;;;;;;20.06;17.32;101351.50;5031174;28;20141;-75
2022/03/14 06:58:53;;;;;;;46.17;24.38;;;;;;;21.65;15.81;101341.09;5018480;28;20032;-76
2022/03/14 07:01:19;;;;;;;36.63;21.17;;;;;;;23.13;14.50;101358.22;5015418;28;20109;-76
2022/03/14 07:03:44;;;;;;;43.03;21.77;;;;;;;24.74;13.53;101352.59;5016911;28;20025;-73
2022/03/14 07:06:11;;;;;;;59.28;23.05;;;;;;;26.01;11.67;101356.69;5015212;28;20050;-75
2022/03/14 07:08:37;;;;;;;47.15;22.30;;;;;;;25.95;11.52;101362.66;5016559;28;20029;-76
2022/03/14 07:11:02;;;;;;;54.72;21.65;;;;;;;26.44;11.44;101357.13;5016438;28;20463;-75
2022/03/14 07:13:28;;;;;;;40.22;21.92;;;;;;;27.49;10.92;101367.59;5015041;28;20052;-77
2022/03/14 07:15:54;;;;;;;39.70;20.38;;;;;;;28.46;10.34;101365.09;5015121;28;20103;-75
2022/03/14 07:18:20;;;;;;;40.72;20.70;;;;;;;29.32;9.55;101370.03;5021045;28;20041;-78
2022/03/14 07:20:46;;;;;;;37.03;20.02;;;;;;;29.59;9.26;101370.41;5031489;28;20505;-74
2022/03/14 07:23:12;;;;;;;37.17;21.65;;;;;;;29.77;8.85;101371.38;5031910;28;20029;-76
2022/03/14 07:25:39;;;;;;;54.92;22.08;;;;;;;30.12;8.67;101370.34;5034590;28;20044;-77
2022/03/14 07:28:09;;;;;;;48.03;21.33;;;;;;;30.48;8.54;101366.31;5034155;28;20033;-78
2022/03/14 07:30:36;;;;;;;40.58;20.00;;;;;;;30.44;8.31;101370.41;5014239;28;20034;-75
2022/03/14 07:33:02;;;;;;;35.72;16.58;;;;;;;30.99;7.85;101366.59;5034953;28;20033;-76
2022/03/14 07:35:29;;;;;;;34.17;18.63;;;;;;;31.95;7.82;101361.91;5021152;28;20061;-76
2022/03/14 07:37:55;;;;;;;40.25;18.25;;;;;;;32.03;7.36;101367.69;5023298;28;20052;-79
2022/03/14 07:40:20;;;;;;;34.15;18.02;;;;;;;31.63;6.75;101371.66;5033322;28;20050;-79
2022/03/14 07:42:48;;;;;;;26.38;16.33;;;;;;;31.48;7.46;101371.75;5028034;28;20466;-80
2022/03/14 07:45:20;;;;;;;37.75;19.10;;;;;;;32.19;7.55;101369.13;5011608;28;20049;-78
2022/03/14 07:47:46;;;;;;;33.22;17.40;;;;;;;33.03;6.37;101371.75;5027307;28;20116;-80
2022/03/14 07:50:19;;;;;;;36.28;17.77;;;;;;;33.19;6.38;101369.38;5023842;28;20058;-78
2022/03/14 07:52:45;;;;;;;30.75;17.83;;;;;;;31.78;6.86;101373.66;5015593;28;20034;-77
2022/03/14 07:55:12;;;;;;;34.40;17.98;;;;;;;31.03;7.36;101378.81;4998218;28;20136;-76
2022/03/14 07:57:38;;;;;;;33.22;18.00;;;;;;;28.73;8.33;101375.16;5021395;28;20029;-77
2022/03/14 08:00:13;;;;;;;35.30;16.55;;;;;;;25.01;10.35;101371.03;5034604;28;20102;-86
2022/03/14 08:02:40;;;;;;;26.95;16.20;;;;;;;21.96;12.09;101375.56;5018273;28;20156;-76
2022/03/14 08:05:16;;;;;;;47.80;19.10;;;;;;;21.21;12.87;101376.75;5011736;28;20395;-78
2022/03/14 08:07:51;;;;;;;35.95;16.63;;;;;;;19.74;13.93;101382.63;5013545;28;20479;-78
2022/03/14 08:10:20;;;;;;;36.47;17.98;;;;;;;19.33;14.54;101384.97;4997449;28;20046;-80
2022/03/14 08:12:49;;;;;;;68.07;19.98;;;;;;;19.63;14.20;101381.78;5016136;28;20069;-77
2022/03/14 08:15:36;;;;;;;31.65;16.45;;;;;;;18.86;14.76;101379.84;5015273;28;20048;-76
2022/03/14 08:18:07;;;;;;;29.00;16.92;;;;;;;18.08;15.52;101393.38;5015878;28;20025;-76
2022/03/14 08:20:57;;;;;;;30.17;16.00;;;;;;;18.30;15.29;101385.03;5019637;28;20029;-76
2022/03/14 08:23:23;;;;;;;29.98;16.15;;;;;;;18.53;15.63;101389.75;5032687;28;20048;-77
2022/03/14 08:25:49;;;;;;;32.88;17.30;;;;;;;19.06;15.38;101387.63;5032345;28;20140;-75
2022/03/14 08:28:15;;;;;;;29.30;15.98;;;;;;;19.54;14.70;101381.97;5032800;28;20033;-73
2022/03/14 08:30:48;;;;;;;30.65;16.27;;;;;;;19.82;15.02;101374.28;5034234;28;20398;-73
2022/03/14 08:33:16;;;;;;;29.55;14.52;;;;;;;20.04;14.65;101374.34;5034776;28;20382;-74
2022/03/14 08:35:41;;;;;;;26.95;15.48;;;;;;;20.19;14.12;101368.38;5033045;28;20040;-73
2022/03/14 08:38:08;;;;;;;29.83;15.75;;;;;;;20.10;14.29;101374.38;5016844;28;20037;-74
2022/03/14 08:40:35;;;;;;;32.65;14.10;;;;;;;20.01;13.56;101369.63;5017222;28;20025;-77
2022/03/14 08:43:00;;;;;;;28.95;14.65;;;;;;;19.26;14.00;101355.75;5033833;28;20116;-75
2022/03/14 08:45:27;;;;;;;21.58;13.38;;;;;;;18.67;14.50;101364.16;5034722;28;20072;-75
2022/03/14 08:48:05;;;;;;;36.63;14.68;;;;;;;18.09;14.68;101366.13;5035482;28;20029;-78
2022/03/14 08:50:33;;;;;;;30.67;13.52;;;;;;;17.71;15.35;101370.13;5035567;28;20040;-77
2022/03/14 08:52:59;;;;;;;23.95;14.40;;;;;;;17.13;16.11;101371.81;5036904;28;20115;-82
2022/03/14 08:55:26;;;;;;;28.33;12.85;;;;;;;16.94;16.29;101343.75;5056766;28;20044;-80
2022/03/14 08:57:54;;;;;;;23.63;12.30;;;;;;;17.43;16.55;101374.63;5036597;28;20041;-80
2022/03/14 09:00:24;;;;;;;40.58;14.02;;;;;;;17.73;16.66;101373.28;5056444;28;20033;-78
2022/03/14 09:02:51;;;;;;;27.38;14.18;;;;;;;17.87;16.48;101375.28;5038832;28;20017;-78
2022/03/14 09:05:17;;;;;;;28.75;14.38;;;;;;;17.72;16.36;101354.38;5022450;28;20025;-82
2022/03/14 09:07:43;;;;;;;27.42;13.20;;;;;;;17.71;16.23;101361.47;5057216;28;20535;-82
2022/03/14 09:10:24;;;;;;;28.98;13.93;;;;;;;17.14;16.48;101353.25;5020527;28;20059;-83
2022/03/14 09:12:52;;;;;;;22.98;11.93;;;;;;;16.78;15.93;101350.81;5038651;28;20083;-80
2022/03/14 09:15:20;;;;;;;20.38;11.93;;;;;;;16.34;16.94;101368.00;5034665;28;20053;-79
2022/03/14 09:17:59;;;;;;;26.42;12.93;;;;;;;16.18;17.19;101372.16;5000710;28;20053;-74
2022/03/14 09:20:26;;;;;;;17.85;11.48;;;;;;;16.06;17.13;101361.72;5033735;28;20029;-74
2022/03/14 09:23:10;;;;;;;25.33;11.82;;;;;;;16.02;16.64;101355.38;5034000;28;20029;-75
2022/03/14 09:25:37;;;;;;;16.88;10.60;;;;;;;15.93;17.41;101362.00;4999696;28;20033;-74
2022/03/14 09:28:02;;;;;;;16.73;11.77;;;;;;;16.04;17.31;101367.16;5034338;28;20040;-80
2022/03/14 09:30:30;;;;;;;23.38;12.45;;;;;;;16.14;16.73;101353.50;5018060;28;20029;-79
2022/03/14 09:32:56;;;;;;;25.00;13.07;;;;;;;16.19;16.69;101361.44;4985348;28;20056;-81
2022/03/14 09:35:24;;;;;;;18.92;10.50;;;;;;;16.36;16.85;101356.81;5019807;28;20040;-78
2022/03/14 09:37:51;;;;;;;30.15;10.32;;;;;;;16.53;16.02;101362.91;5023075;28;20127;-78
2022/03/14 09:40:21;;;;;;;17.88;11.63;;;;;;;16.47;16.12;101347.63;5040149;28;20392;-80
2022/03/14 09:42:59;;;;;;;19.67;10.43;;;;;;;16.72;16.17;101347.06;5057643;28;20488;-79
2022/03/14 09:45:25;;;;;;;26.90;10.48;;;;;;;16.80;15.57;101342.47;5019199;28;20029;-82
2022/03/14 09:47:52;;;;;;;19.00;10.93;;;;;;;16.69;16.01;101330.78;5019060;28;20112;-79
2022/03/14 09:50:36;;;;;;;14.52;9.77;;;;;;;16.63;15.16;101341.38;5022668;28;20052;-78
2022/03/14 09:53:04;;;;;;;15.15;8.82;;;;;;;16.77;15.89;101335.63;5022027;28;20039;-83
2022/03/14 09:55:44;;;;;;;11.70;8.82;;;;;;;16.81;15.34;101339.13;5016304;28;20378;-82
2022/03/14 09:58:11;;;;;;;17.65;8.85;;;;;;;16.76;15.70;101334.06;5035011;28;20078;-85
2022/03/14 10:00:37;;;;;;;19.17;9.75;;;;;;;16.70;15.70;101359.06;5036874;28;20470;-80
2022/03/14 10:03:03;;;;;;;14.70;8.48;;;;;;;16.42;15.42;101332.66;4994372;28;20171;-85
2022/03/14 10:05:30;;;;;;;15.93;8.77;;;;;;;16.36;16.45;101328.88;5016985;28;20068;-85
2022/03/14 10:07:55;;;;;;;13.68;8.32;;;;;;;16.49;15.95;101311.31;4999674;28;20048;-78
2022/03/14 10:10:22;;;;;;;14.93;9.60;;;;;;;16.66;16.58;101326.81;5016457;28;20128;-84
2022/03/14 10:12:58;;;;;;;17.00;9.05;;;;;;;16.45;15.87;101310.72;5001050;28;20130;-83
2022/03/14 10:15:41;;;;;;;17.88;9.82;;;;;;;16.17;16.30;101315.97;5004640;28;20044;-80
2022/03/14 10:18:11;;;;;;;17.42;9.82;;;;;;;16.16;16.27;101333.69;4999105;28;20025;-79
2022/03/14 10:20:38;;;;;;;31.27;12.32;;;;;;;16.01;15.84;101333.66;5008434;28;20339;-77
2022/03/14 10:23:04;;;;;;;22.17;9.68;;;;;;;15.83;16.53;101328.88;5001781;28;20113;-76
2022/03/14 10:25:30;;;;;;;30.30;12.43;;;;;;;15.80;16.06;101329.84;5017016;28;20478;-73
2022/03/14 10:27:57;;;;;;;29.02;12.50;;;;;;;15.85;16.79;101322.63;5027236;28;20086;-72
2022/03/14 10:30:29;;;;;;;15.00;8.93;;;;;;;15.82;15.96;101335.09;5033040;28;20083;-73
2022/03/14 10:33:10;;;;;;;15.30;9.70;;;;;;;15.68;16.53;101332.97;5035566;28;20026;-74
2022/03/14 10:35:38;;;;;;;24.10;9.75;;;;;;;15.71;16.62;101331.97;5043394;28;20104;-80
2022/03/14 10:38:13;;;;;;;31.25;10.98;;;;;;;15.68;16.35;101330.91;5048869;28;20037;-79
2022/03/14 10:40:41;;;;;;;15.40;8.52;;;;;;;15.60;16.42;101321.03;5037780;28;20100;-76
2022/03/14 10:43:28;;;;;;;15.27;9.25;;;;;;;15.55;17.78;101328.25;5038465;28;20027;-74
2022/03/14 10:45:59;;;;;;;15.75;8.88;;;;;;;15.61;15.82;101328.38;5057066;28;20025;-80
2022/03/14 10:48:40;;;;;;;19.77;10.35;;;;;;;15.72;16.34;101330.69;5019229;28;20108;-77
2022/03/14 10:51:08;;;;;;;19.60;9.20;;;;;;;15.93;15.99;101327.50;5003261;28;20073;-80
2022/03/14 10:53:34;;;;;;;17.45;9.30;;;;;;;16.03;16.19;101324.56;5002083;28;20068;-73
2022/03/14 10:56:00;;;;;;;24.10;10.73;;;;;;;16.08;15.72;101323.88;5018719;28;20083;-75
2022/03/14 10:58:35;;;;;;;19.02;8.95;;;;;;;15.88;15.87;101327.41;5019283;28;20034;-79
2022/03/14 11:01:03;;;;;;;24.17;9.68;;;;;;;15.61;16.48;101310.34;5002961;28;20022;-77
2022/03/14 11:03:36;;;;;;;15.77;8.10;;;;;;;15.65;16.67;101293.72;5018500;28;20140;-81
2022/03/14 11:06:06;;;;;;;16.50;8.23;;;;;;;15.74;16.35;101319.53;5020332;28;20075;-77
2022/03/14 11:08:42;;;;;;;13.73;8.95;;;;;;;15.58;16.30;101308.47;4988412;28;20315;-76
2022/03/14 11:11:12;;;;;;;18.35;8.95;;;;;;;15.49;15.97;101312.19;5036733;28;20022;-77
2022/03/14 11:13:43;;;;;;;18.55;8.52;;;;;;;15.40;16.37;101321.63;5023698;28;20075;-76
2022/03/14 11:16:26;;;;;;;30.85;11.02;;;;;;;15.26;16.42;101316.59;5029131;28;20029;-78
2022/03/14 11:18:52;;;;;;;15.32;7.82;;;;;;;15.21;16.48;101319.34;5038563;28;20025;-78
2022/03/14 11:21:24;;;;;;;13.60;7.68;;;;;;;15.42;16.92;101303.91;5023566;28;20024;-75